createdAt,value
2022-08-05T00:01:35.588Z,100466.00
2022-08-05T00:04:05.105Z,100466.00
2022-08-05T00:06:36.126Z,100473.00
2022-08-05T00:09:13.101Z,100462.00
2022-08-05T00:11:49.037Z,100464.00
2022-08-05T00:14:17.634Z,100468.00
2022-08-05T00:16:52.971Z,100467.00
2022-08-05T00:19:23.331Z,100472.00
2022-08-05T00:21:52.301Z,100468.00
2022-08-05T00:24:24.768Z,100461.00
2022-08-05T00:26:57.775Z,100442.00
2022-08-05T00:29:26.193Z,100456.00
2022-08-05T00:32:13.507Z,100460.00
2022-08-05T00:35:05.595Z,100453.00
2022-08-05T00:37:35.647Z,100452.00
2022-08-05T00:40:28.425Z,100451.00
2022-08-05T00:43:02.178Z,100459.00
2022-08-05T00:45:39.441Z,100461.00
2022-08-05T00:48:27.398Z,100445.00
2022-08-05T00:50:54.854Z,100454.00
2022-08-05T00:54:00.396Z,100453.00
2022-08-05T00:56:12.080Z,100453.00
2022-08-05T00:58:39.227Z,100453.00
2022-08-05T01:01:12.205Z,100443.00
2022-08-05T01:03:40.412Z,100450.00
2022-08-05T01:06:14.234Z,100451.00
2022-08-05T01:08:44.225Z,100446.00
2022-08-05T01:11:36.838Z,100448.00
2022-08-05T01:14:28.222Z,100441.00
2022-08-05T01:17:17.740Z,100433.00
2022-08-05T01:20:00.770Z,100439.00
2022-08-05T01:23:23.480Z,100434.00
2022-08-05T01:26:18.444Z,100424.00
2022-08-05T01:29:05.348Z,100424.00
2022-08-05T01:31:52.524Z,100428.00
2022-08-05T01:34:28.123Z,100423.00
2022-08-05T01:37:37.900Z,100416.00
2022-08-05T01:40:13.964Z,100417.00
2022-08-05T01:42:49.139Z,100408.00
2022-08-05T01:45:18.201Z,100407.00
2022-08-05T01:47:49.967Z,100409.00
2022-08-05T01:50:36.108Z,100415.00
2022-08-05T01:53:13.348Z,100416.00
2022-08-05T01:55:45.242Z,100405.00
2022-08-05T01:58:17.101Z,100416.00
2022-08-05T02:00:50.986Z,100415.00
2022-08-05T02:03:31.574Z,100415.00
2022-08-05T02:06:03.631Z,100408.00
2022-08-05T02:08:58.654Z,100409.00
2022-08-05T02:11:52.909Z,100412.00
2022-08-05T02:14:47.223Z,100409.00
2022-08-05T02:18:28.258Z,100405.00
2022-08-05T02:20:23.251Z,100408.00
2022-08-05T02:23:05.772Z,100397.00
2022-08-05T02:25:50.111Z,100396.00
2022-08-05T02:28:33.088Z,100391.00
2022-08-05T02:31:07.695Z,100397.00
2022-08-05T02:33:57.557Z,100392.00
2022-08-05T02:36:31.323Z,100391.00
2022-08-05T02:39:01.730Z,100391.00
2022-08-05T02:41:36.370Z,100394.00
2022-08-05T02:44:24.618Z,100391.00
2022-08-05T02:46:59.733Z,100393.00
2022-08-05T02:49:37.748Z,100380.00
2022-08-05T02:52:30.036Z,100380.00
2022-08-05T02:55:02.026Z,100384.00
2022-08-05T02:58:10.044Z,100388.00
2022-08-05T03:00:20.818Z,100386.00
2022-08-05T03:02:50.543Z,100388.00
2022-08-05T03:05:21.849Z,100381.00
2022-08-05T03:08:09.499Z,100386.00
2022-08-05T03:10:36.865Z,100381.00
2022-08-05T03:13:17.104Z,100387.00
2022-08-05T03:15:46.139Z,100385.00
2022-08-05T03:18:14.006Z,100368.00
2022-08-05T03:20:44.555Z,100383.00
2022-08-05T03:23:16.359Z,100383.00
2022-08-05T03:26:05.035Z,100390.00
2022-08-05T03:28:31.571Z,100384.00
2022-08-05T03:31:02.430Z,100387.00
2022-08-05T03:33:51.043Z,100381.00
2022-08-05T03:36:18.346Z,100385.00
2022-08-05T03:38:58.259Z,100387.00
2022-08-05T03:41:25.559Z,100373.00
2022-08-05T03:44:10.991Z,100377.00
2022-08-05T03:46:39.045Z,100374.00
2022-08-05T03:49:06.700Z,100380.00
2022-08-05T03:52:36.627Z,100374.00
2022-08-05T03:55:52.963Z,100364.00
2022-08-05T03:57:44.559Z,100384.00
2022-08-05T04:00:16.648Z,100363.00
2022-08-05T04:02:57.943Z,100377.00
2022-08-05T04:05:33.283Z,100379.00
2022-08-05T04:08:29.750Z,100364.00
2022-08-05T04:10:57.231Z,100355.00
2022-08-05T04:13:50.422Z,100371.00
2022-08-05T04:16:15.404Z,100377.00
2022-08-05T04:18:54.219Z,100377.00
2022-08-05T04:22:10.284Z,100371.00
2022-08-05T04:24:18.668Z,100374.00
2022-08-05T04:26:47.198Z,100364.00
2022-08-05T04:29:14.286Z,100363.00
2022-08-05T04:31:41.424Z,100361.00
2022-08-05T04:34:19.010Z,100348.00
2022-08-05T04:36:50.208Z,100359.00
2022-08-05T04:39:19.620Z,100360.00
2022-08-05T04:41:48.353Z,100361.00
2022-08-05T04:44:21.304Z,100305.00
2022-08-05T04:46:56.163Z,100360.00
2022-08-05T04:49:24.670Z,100361.00
2022-08-05T04:52:07.738Z,100359.00
2022-08-05T04:54:34.807Z,100359.00
2022-08-05T04:57:01.749Z,100354.00
2022-08-05T04:59:36.809Z,100364.00
2022-08-05T05:02:41.182Z,100357.00
2022-08-05T05:04:52.927Z,100364.00
2022-08-05T05:07:32.352Z,100355.00
2022-08-05T05:10:04.414Z,100359.00
2022-08-05T05:12:31.658Z,100356.00
2022-08-05T05:14:58.790Z,100347.00
2022-08-05T05:17:56.713Z,100360.00
2022-08-05T05:20:14.125Z,100335.00
2022-08-05T05:22:44.182Z,100342.00
2022-08-05T05:25:17.086Z,100349.00
2022-08-05T05:27:53.616Z,100344.00
2022-08-05T05:30:30.901Z,100351.00
2022-08-05T05:33:03.474Z,100348.00
2022-08-05T05:35:39.527Z,100351.00
2022-08-05T05:38:13.308Z,100350.00
2022-08-05T05:40:49.884Z,100345.00
2022-08-05T05:43:21.864Z,100348.00
2022-08-05T05:45:54.818Z,100347.00
2022-08-05T05:48:27.616Z,100349.00
2022-08-05T05:50:54.755Z,100349.00
2022-08-05T05:53:22.790Z,100345.00
2022-08-05T05:55:52.179Z,100352.00
2022-08-05T05:58:31.395Z,100339.00
2022-08-05T06:01:12.079Z,100355.00
2022-08-05T06:04:01.153Z,100351.00
2022-08-05T06:06:31.134Z,100351.00
2022-08-05T06:09:00.548Z,100354.00
2022-08-05T06:11:28.988Z,100353.00
2022-08-05T06:13:56.786Z,100349.00
2022-08-05T06:16:30.749Z,100352.00
2022-08-05T06:19:01.751Z,100340.00
2022-08-05T06:21:36.811Z,100341.00
2022-08-05T06:24:11.858Z,100340.00
2022-08-05T06:26:51.571Z,100335.00
2022-08-05T06:29:25.104Z,100335.00
2022-08-05T06:32:21.051Z,100316.00
2022-08-05T06:34:56.531Z,100330.00
2022-08-05T06:37:56.059Z,100334.00
2022-08-05T06:40:18.449Z,100333.00
2022-08-05T06:42:52.108Z,100324.00
2022-08-05T06:45:44.996Z,100315.00
2022-08-05T06:48:36.960Z,100311.00
2022-08-05T06:50:56.159Z,100322.00
2022-08-05T06:53:28.285Z,100320.00
2022-08-05T06:56:00.256Z,100320.00
2022-08-05T06:58:29.928Z,100309.00
2022-08-05T07:01:04.613Z,100305.00
2022-08-05T07:03:33.219Z,100301.00
2022-08-05T07:06:05.981Z,100305.00
2022-08-05T07:08:47.783Z,100299.00
2022-08-05T07:11:21.966Z,100280.00
2022-08-05T07:14:20.569Z,100295.00
2022-08-05T07:18:08.749Z,100293.00
2022-08-05T07:20:32.133Z,100291.00
2022-08-05T07:22:37.803Z,100294.00
2022-08-05T07:25:24.117Z,100292.00
2022-08-05T07:27:58.502Z,100283.00
2022-08-05T07:30:32.518Z,100291.00
2022-08-05T07:33:15.968Z,100295.00
2022-08-05T07:36:03.459Z,100282.00
2022-08-05T07:38:43.491Z,100282.00
2022-08-05T07:42:13.396Z,100276.00
2022-08-05T07:44:14.305Z,100280.00
2022-08-05T07:46:53.875Z,100281.00
2022-08-05T07:49:21.441Z,100277.00
2022-08-05T07:51:53.479Z,100271.00
2022-08-05T07:54:33.442Z,100286.00
2022-08-05T07:57:23.625Z,100267.00
2022-08-05T07:59:52.446Z,100276.00
2022-08-05T08:02:31.134Z,100271.00
2022-08-05T08:05:17.409Z,100275.00
2022-08-05T08:07:59.631Z,100271.00
2022-08-05T08:10:28.722Z,100276.00
2022-08-05T08:12:59.708Z,100280.00
2022-08-05T08:16:33.634Z,100272.00
2022-08-05T08:18:20.875Z,100280.00
2022-08-05T08:21:02.475Z,100277.00
2022-08-05T08:24:01.968Z,100281.00
2022-08-05T08:26:17.722Z,100271.00
2022-08-05T08:29:21.768Z,100269.00
2022-08-05T08:31:46.685Z,100252.00
2022-08-05T08:34:30.693Z,100260.00
2022-08-05T08:37:03.353Z,100256.00
2022-08-05T08:39:32.506Z,100259.00
2022-08-05T08:42:10.803Z,100261.00
2022-08-05T08:45:23.786Z,100253.00
2022-08-05T08:48:06.847Z,100254.00
2022-08-05T08:51:03.310Z,100246.00
2022-08-05T08:53:35.433Z,100251.00
2022-08-05T08:56:13.267Z,100242.00
2022-08-05T08:58:44.708Z,100240.00
2022-08-05T09:01:18.211Z,100247.00
2022-08-05T09:03:58.327Z,100231.00
2022-08-05T09:06:29.993Z,100235.00
2022-08-05T09:09:01.191Z,100237.00
2022-08-05T09:11:50.831Z,100232.00
2022-08-05T09:14:57.810Z,100234.00
2022-08-05T09:17:39.970Z,100225.00
2022-08-05T09:20:02.360Z,100228.00
2022-08-05T09:23:07.812Z,100231.00
2022-08-05T09:26:02.926Z,100222.00
2022-08-05T09:28:31.499Z,100222.00
2022-08-05T09:31:44.208Z,100208.00
2022-08-05T09:34:09.801Z,100218.00
2022-08-05T09:36:59.192Z,100211.00
2022-08-05T09:39:45.816Z,100220.00
2022-08-05T09:42:23.366Z,100207.00
2022-08-05T09:44:56.352Z,100212.00
2022-08-05T09:47:46.581Z,100204.00
2022-08-05T09:50:38.110Z,100211.00
2022-08-05T09:53:07.118Z,100206.00
2022-08-05T09:55:57.130Z,100184.00
2022-08-05T09:58:25.370Z,100193.00
2022-08-05T10:01:01.322Z,100192.00
2022-08-05T10:03:56.968Z,100195.00
2022-08-05T10:06:20.744Z,100187.00
2022-08-05T10:08:50.319Z,100183.00
2022-08-05T10:11:21.360Z,100177.00
2022-08-05T10:13:54.604Z,100171.00
2022-08-05T10:16:41.825Z,100178.00
2022-08-05T10:19:31.884Z,100167.00
2022-08-05T10:22:30.204Z,100167.00
2022-08-05T10:24:59.248Z,100163.00
2022-08-05T10:28:13.232Z,100155.00
2022-08-05T10:31:20.711Z,100147.00
2022-08-05T10:33:35.214Z,100161.00
2022-08-05T10:36:05.143Z,100153.00
2022-08-05T10:38:36.213Z,100132.00
2022-08-05T10:41:45.166Z,100147.00
2022-08-05T10:44:20.351Z,100152.00
2022-08-05T10:46:54.751Z,100153.00
2022-08-05T10:49:33.352Z,100149.00
2022-08-05T10:52:49.583Z,100151.00
2022-08-05T10:55:18.480Z,100134.00
2022-08-05T10:57:46.191Z,100142.00
2022-08-05T11:00:23.251Z,100146.00
2022-08-05T11:03:24.372Z,100137.00
2022-08-05T11:06:15.362Z,100130.00
2022-08-05T11:09:31.989Z,100132.00
2022-08-05T11:12:42.184Z,100130.00
2022-08-05T11:15:21.648Z,100140.00
2022-08-05T11:18:11.651Z,100127.00
2022-08-05T11:20:47.766Z,100122.00
2022-08-05T11:24:04.326Z,100125.00
2022-08-05T11:26:29.133Z,100123.00
2022-08-05T11:29:13.129Z,100119.00
2022-08-05T11:31:57.877Z,100105.00
2022-08-05T11:34:47.459Z,100124.00
2022-08-05T11:38:29.157Z,100106.00
2022-08-05T11:41:34.592Z,100109.00
2022-08-05T11:44:08.510Z,100110.00
2022-08-05T11:46:58.476Z,100109.00
2022-08-05T11:49:29.348Z,100101.00
2022-08-05T11:52:02.092Z,100092.00
2022-08-05T11:54:41.379Z,100101.00
2022-08-05T11:57:25.015Z,100091.00
2022-08-05T11:59:53.833Z,100090.00
2022-08-05T12:02:31.898Z,100089.00
2022-08-05T12:05:07.947Z,100091.00
2022-08-05T12:08:07.814Z,100091.00
2022-08-05T12:10:43.805Z,100080.00
2022-08-05T12:13:18.929Z,100079.00
2022-08-05T12:16:15.070Z,100077.00
2022-08-05T12:18:48.945Z,100078.00
2022-08-05T12:21:42.226Z,100075.00
2022-08-05T12:24:14.311Z,100060.00
2022-08-05T12:26:50.606Z,100070.00
2022-08-05T12:29:22.971Z,100085.00
2022-08-05T12:32:01.963Z,100074.00
2022-08-05T12:34:33.315Z,100073.00
2022-08-05T12:37:29.816Z,100077.00
2022-08-05T12:40:03.511Z,100080.00
2022-08-05T12:42:39.913Z,100081.00
2022-08-05T12:45:10.965Z,100073.00
2022-08-05T12:47:43.419Z,100063.00
2022-08-05T12:50:25.982Z,100076.00
2022-08-05T12:53:01.415Z,100084.00
2022-08-05T12:55:32.481Z,100080.00
2022-08-05T12:58:48.950Z,100076.00
2022-08-05T13:02:02.522Z,100086.00
2022-08-05T13:03:43.323Z,100079.00
2022-08-05T13:06:17.691Z,100083.00
2022-08-05T13:08:51.724Z,100081.00
2022-08-05T13:11:25.576Z,100090.00
2022-08-05T13:14:20.222Z,100087.00
2022-08-05T13:16:56.381Z,100087.00
2022-08-05T13:19:27.545Z,100090.00
2022-08-05T13:22:15.079Z,100085.00
2022-08-05T13:25:05.845Z,100066.00
2022-08-05T13:27:43.785Z,100068.00
2022-08-05T13:30:34.837Z,100075.00
2022-08-05T13:33:05.459Z,100068.00
2022-08-05T13:35:47.395Z,100064.00
2022-08-05T13:38:30.563Z,100057.00
2022-08-05T13:41:01.323Z,100049.00
2022-08-05T13:43:45.446Z,100053.00
2022-08-05T13:46:16.500Z,100048.00
2022-08-05T13:49:03.809Z,100050.00
2022-08-05T13:51:40.327Z,100047.00
2022-08-05T13:54:15.032Z,100041.00
2022-08-05T13:56:50.792Z,100047.00
2022-08-05T13:59:21.440Z,100036.00
2022-08-05T14:02:00.310Z,100033.00
2022-08-05T14:04:51.039Z,100028.00
2022-08-05T14:07:59.498Z,100037.00
2022-08-05T14:10:28.718Z,100035.00
2022-08-05T14:12:59.399Z,100033.00
2022-08-05T14:16:05.957Z,100034.00
2022-08-05T14:18:18.557Z,100034.00
2022-08-05T14:20:54.489Z,100038.00
2022-08-05T14:23:25.707Z,100048.00
2022-08-05T14:25:58.262Z,100035.00
2022-08-05T14:28:28.403Z,100031.00
2022-08-05T14:31:00.578Z,100040.00
2022-08-05T14:33:32.647Z,100032.00
2022-08-05T14:36:15.571Z,100029.00
2022-08-05T14:38:47.972Z,100029.00
2022-08-05T14:41:15.187Z,100036.00
2022-08-05T14:44:01.832Z,100041.00
2022-08-05T14:46:35.325Z,100037.00
2022-08-05T14:49:07.571Z,100036.00
2022-08-05T14:51:37.988Z,100043.00
2022-08-05T14:54:27.746Z,100040.00
2022-08-05T14:56:54.992Z,100037.00
2022-08-05T14:59:22.338Z,100041.00
2022-08-05T15:01:50.184Z,100034.00
2022-08-05T15:04:22.596Z,100038.00
2022-08-05T15:06:51.332Z,100033.00
2022-08-05T15:09:51.790Z,100033.00
2022-08-05T15:12:11.718Z,100027.00
2022-08-05T15:14:49.976Z,100034.00
2022-08-05T15:17:47.339Z,100036.00
2022-08-05T15:20:18.618Z,100027.00
2022-08-05T15:22:54.104Z,100026.00
2022-08-05T15:25:40.858Z,100028.00
2022-08-05T15:28:13.367Z,100027.00
2022-08-05T15:30:45.589Z,100020.00
2022-08-05T15:34:04.704Z,100025.00
2022-08-05T15:36:05.709Z,100020.00
2022-08-05T15:38:41.258Z,100013.00
2022-08-05T15:41:22.464Z,100007.00
2022-08-05T15:43:54.752Z,100005.00
2022-08-05T15:46:24.101Z,99996.00
2022-08-05T15:48:55.642Z,100001.00
2022-08-05T15:52:04.416Z,99987.00
2022-08-05T15:54:18.370Z,99981.00
2022-08-05T15:56:45.476Z,99989.00
2022-08-05T15:59:22.344Z,99987.00
2022-08-05T16:01:52.832Z,99994.00
2022-08-05T16:04:25.499Z,99984.00
2022-08-05T16:06:55.811Z,99982.00
2022-08-05T16:09:25.124Z,99977.00
2022-08-05T16:11:54.794Z,99977.00
2022-08-05T16:14:24.156Z,99974.00
2022-08-05T16:16:56.509Z,99970.00
2022-08-05T16:20:05.296Z,99967.00
2022-08-05T16:22:15.489Z,99970.00
2022-08-05T16:24:51.183Z,99973.00
2022-08-05T16:27:32.022Z,99969.00
2022-08-05T16:30:26.513Z,99970.00
2022-08-05T16:32:55.798Z,99969.00
2022-08-05T16:35:28.365Z,99967.00
2022-08-05T16:38:15.603Z,99971.00
2022-08-05T16:40:51.894Z,99968.00
2022-08-05T16:43:27.770Z,99973.00
2022-08-05T16:46:06.636Z,99968.00
2022-08-05T16:48:40.344Z,99982.00
2022-08-05T16:51:09.492Z,99988.00
2022-08-05T16:54:06.299Z,99986.00
2022-08-05T16:56:29.319Z,99986.00
2022-08-05T16:58:57.754Z,99991.00
2022-08-05T17:01:24.965Z,99998.00
2022-08-05T17:03:52.270Z,99995.00
2022-08-05T17:06:20.477Z,99992.00
2022-08-05T17:08:54.372Z,100002.00
2022-08-05T17:11:25.303Z,100004.00
2022-08-05T17:14:00.629Z,100001.00
2022-08-05T17:16:36.516Z,100005.00
2022-08-05T17:19:09.294Z,100012.00
2022-08-05T17:21:37.696Z,100008.00
2022-08-05T17:24:28.255Z,99999.00
2022-08-05T17:26:59.114Z,100020.00
2022-08-05T17:29:33.301Z,100011.00
2022-08-05T17:32:16.835Z,100017.00
2022-08-05T17:34:48.086Z,100010.00
2022-08-05T17:37:39.801Z,100030.00
2022-08-05T17:40:10.313Z,100040.00
2022-08-05T17:42:42.912Z,100063.00
2022-08-05T17:45:21.143Z,100082.00
2022-08-05T17:47:55.711Z,100103.00
2022-08-05T17:50:30.277Z,100099.00
2022-08-05T17:53:05.381Z,100131.00
2022-08-05T17:55:38.082Z,100143.00
2022-08-05T17:58:13.506Z,100149.00
2022-08-05T18:00:50.542Z,100160.00
2022-08-05T18:06:11.331Z,100140.00
2022-08-05T18:08:40.507Z,100150.00
2022-08-05T18:11:24.759Z,100165.00
2022-08-05T18:13:59.852Z,100151.00
2022-08-05T18:16:27.258Z,100151.00
2022-08-05T18:18:54.343Z,100146.00
2022-08-05T18:21:26.455Z,100151.00
2022-08-05T18:24:12.678Z,100154.00
2022-08-05T18:26:41.719Z,100146.00
2022-08-05T18:29:10.892Z,100136.00
2022-08-05T18:31:38.396Z,100147.00
2022-08-05T18:34:12.173Z,100148.00
2022-08-05T18:36:41.249Z,100139.00
2022-08-05T18:39:42.021Z,100155.00
2022-08-05T18:42:07.617Z,100168.00
2022-08-05T18:44:48.960Z,100175.00
2022-08-05T18:47:16.545Z,100173.00
2022-08-05T18:50:02.052Z,100168.00
2022-08-05T18:52:33.664Z,100171.00
2022-08-05T18:55:10.441Z,100180.00
2022-08-05T18:57:49.964Z,100202.00
2022-08-05T19:00:21.042Z,100202.00
2022-08-05T19:02:55.486Z,100209.00
2022-08-05T19:06:13.370Z,100208.00
2022-08-05T19:08:13.523Z,100182.00
2022-08-05T19:10:42.398Z,100176.00
2022-08-05T19:13:12.245Z,100173.00
2022-08-05T19:15:58.764Z,100161.00
2022-08-05T19:18:28.655Z,100158.00
2022-08-05T19:20:56.226Z,100155.00
2022-08-05T19:24:06.718Z,100148.00
2022-08-05T19:26:11.115Z,100164.00
2022-08-05T19:28:42.249Z,100167.00
2022-08-05T19:31:13.506Z,100164.00
2022-08-05T19:33:48.493Z,100188.00
2022-08-05T19:36:29.374Z,100211.00
2022-08-05T19:39:01.315Z,100241.00
2022-08-05T19:42:05.446Z,100271.00
2022-08-05T19:44:19.046Z,100268.00
2022-08-05T19:46:47.062Z,100278.00
2022-08-05T20:06:46.460Z,100273.00
2022-08-05T20:09:14.488Z,100259.00
2022-08-05T20:11:48.123Z,100265.00
2022-08-05T20:14:26.753Z,100260.00
2022-08-05T20:16:55.374Z,100257.00
2022-08-05T20:19:23.695Z,100260.00
2022-08-05T20:22:02.938Z,100254.00
2022-08-05T20:24:32.935Z,100256.00
2022-08-05T20:27:02.254Z,100256.00
2022-08-05T20:29:29.403Z,100271.00
2022-08-05T20:31:58.358Z,100242.00
2022-08-05T20:34:27.029Z,100254.00
2022-08-05T20:36:54.205Z,100258.00
2022-08-05T20:39:22.830Z,100263.00
2022-08-05T20:41:50.005Z,100272.00
2022-08-05T20:44:30.194Z,100272.00
2022-08-05T20:47:06.708Z,100259.00
2022-08-05T20:49:39.695Z,100257.00
2022-08-05T21:03:37.969Z,100313.00
2022-08-05T21:06:28.228Z,100313.00
2022-08-05T21:08:55.734Z,100321.00
2022-08-05T21:12:06.525Z,100324.00
2022-08-05T21:14:10.185Z,100325.00
2022-08-05T21:16:39.901Z,100325.00
2022-08-05T21:19:06.892Z,100319.00
2022-08-05T21:21:39.585Z,100323.00
2022-08-05T21:24:13.525Z,100331.00
2022-08-05T21:26:50.250Z,100335.00
2022-08-05T21:29:26.694Z,100335.00
2022-08-05T21:31:59.146Z,100315.00
2022-08-05T21:34:26.178Z,100296.00
2022-08-05T21:36:55.410Z,100305.00
2022-08-05T21:39:26.979Z,100315.00
2022-08-05T21:42:01.492Z,100310.00
2022-08-05T21:44:31.060Z,100303.00
2022-08-05T21:46:59.681Z,100304.00
2022-08-05T21:49:58.472Z,100305.00
2022-08-05T21:52:21.999Z,100308.00
2022-08-05T21:54:56.362Z,100301.00
2022-08-05T21:57:32.621Z,100301.00
2022-08-05T22:00:05.535Z,100299.00
2022-08-05T22:02:33.991Z,100301.00
2022-08-05T22:05:01.256Z,100304.00
2022-08-05T22:07:40.101Z,100311.00
2022-08-05T22:10:17.525Z,100322.00
2022-08-05T22:12:54.226Z,100315.00
2022-08-05T22:16:02.431Z,100319.00
2022-08-05T22:18:08.604Z,100319.00
2022-08-05T22:20:39.119Z,100334.00
2022-08-05T22:24:00.715Z,100319.00
2022-08-05T22:26:31.547Z,100333.00
2022-08-05T22:29:00.645Z,100337.00
2022-08-05T22:31:30.271Z,100334.00
2022-08-05T22:34:01.363Z,100319.00
2022-08-05T22:36:29.277Z,100335.00
2022-08-05T22:38:56.917Z,100335.00
2022-08-05T22:42:04.178Z,100344.00
2022-08-05T22:44:12.008Z,100340.00
2022-08-05T22:46:40.870Z,100342.00
2022-08-05T22:50:18.361Z,100336.00
2022-08-05T22:52:05.050Z,100323.00
2022-08-05T22:54:34.001Z,100339.00
2022-08-05T22:57:01.056Z,100345.00
2022-08-05T22:59:43.966Z,100351.00
2022-08-05T23:02:16.468Z,100351.00
2022-08-05T23:05:02.017Z,100291.00
2022-08-05T23:07:44.807Z,100365.00
2022-08-05T23:10:20.311Z,100371.00
2022-08-05T23:12:54.701Z,100375.00
2022-08-05T23:15:29.444Z,100377.00
2022-08-05T23:18:03.361Z,100370.00
2022-08-05T23:20:37.280Z,100374.00
2022-08-05T23:23:08.405Z,100376.00
2022-08-05T23:25:51.046Z,100371.00
2022-08-05T23:28:21.153Z,100376.00
2022-08-05T23:30:53.663Z,100376.00
2022-08-05T23:33:26.479Z,100374.00
2022-08-05T23:36:10.277Z,100374.00
2022-08-05T23:38:39.217Z,100382.00
2022-08-05T23:41:06.407Z,100379.00
2022-08-05T23:44:06.492Z,100382.00
2022-08-05T23:46:22.152Z,100373.00
2022-08-05T23:49:00.721Z,100376.00
2022-08-05T23:51:53.889Z,100379.00
2022-08-05T23:54:25.607Z,100387.00
2022-08-05T23:57:03.791Z,100368.00
